createdAt,value
2018-04-02T00:01:03.215Z,11.0
2018-04-02T00:11:04.068Z,9.9
2018-04-02T00:21:04.022Z,6.1
2018-04-02T00:31:03.811Z,8.4
2018-04-02T00:41:03.754Z,5.4
2018-04-02T00:51:03.619Z,6.8
2018-04-02T01:01:03.776Z,6.7
2018-04-02T01:11:03.603Z,6.9
2018-04-02T01:21:03.682Z,6.4
2018-04-02T01:31:03.538Z,6.6
2018-04-02T01:41:03.404Z,6.6
2018-04-02T01:51:03.249Z,7.2
2018-04-02T02:01:04.098Z,6.5
2018-04-02T02:11:03.946Z,7.3
2018-04-02T02:21:04.188Z,7.7
2018-04-02T02:31:04.038Z,5.4
2018-04-02T02:41:04.222Z,5.9
2018-04-02T02:51:04.248Z,8.2
2018-04-02T03:01:04.088Z,8.0
2018-04-02T03:11:03.897Z,7.7
2018-04-02T03:21:03.952Z,9.6
2018-04-02T03:31:04.040Z,10.2
2018-04-02T03:41:03.891Z,11.8
2018-04-02T03:51:03.927Z,12.2
2018-04-02T04:01:03.696Z,11.8
2018-04-02T04:11:03.515Z,16.6
2018-04-02T04:21:03.467Z,17.0
2018-04-02T04:31:03.912Z,7.8
2018-04-02T04:41:03.710Z,16.2
2018-04-02T04:51:03.505Z,14.8
2018-04-02T05:01:03.552Z,15.1
2018-04-02T05:11:03.564Z,16.0
2018-04-02T05:21:03.499Z,14.1
2018-04-02T05:31:03.283Z,15.0
2018-04-02T05:41:03.219Z,13.0
2018-04-02T05:51:04.182Z,15.0
2018-04-02T06:01:04.012Z,15.6
2018-04-02T06:11:03.836Z,15.3
2018-04-02T06:21:03.929Z,12.4
2018-04-02T06:31:03.750Z,12.3
2018-04-02T06:41:03.559Z,13.9
2018-04-02T06:51:03.394Z,10.2
2018-04-02T07:01:03.213Z,11.7
2018-04-02T07:11:03.991Z,12.4
2018-04-02T07:21:04.060Z,15.0
2018-04-02T07:31:03.946Z,10.7
2018-04-02T07:41:03.838Z,12.8
2018-04-02T07:51:03.755Z,11.8
2018-04-02T08:01:03.661Z,15.7
2018-04-02T08:11:03.492Z,17.7
2018-04-02T08:21:03.475Z,18.4
2018-04-02T08:31:03.311Z,15.0
2018-04-02T08:41:03.178Z,15.9
2018-04-02T08:51:04.034Z,14.4
2018-04-02T09:01:03.130Z,14.1
2018-04-02T09:11:04.000Z,14.7
2018-04-02T09:21:03.928Z,10.2
2018-04-02T09:31:04.199Z,10.5
2018-04-02T09:41:04.298Z,11.1
2018-04-02T09:51:03.239Z,11.9
2018-04-02T10:01:04.022Z,9.9
2018-04-02T10:11:03.871Z,13.6
2018-04-02T10:21:03.863Z,14.0
2018-04-02T10:31:04.019Z,12.2
2018-04-02T10:41:04.050Z,11.5
2018-04-02T10:51:03.889Z,13.4
2018-04-02T11:01:04.048Z,12.3
2018-04-02T11:11:04.099Z,13.5
2018-04-02T11:21:04.296Z,12.5
2018-04-02T11:31:03.139Z,11.7
2018-04-02T11:41:04.270Z,11.0
2018-04-02T11:51:04.138Z,11.9
2018-04-02T12:01:03.992Z,9.0
2018-04-02T12:11:03.858Z,9.4
2018-04-02T12:21:03.851Z,9.9
2018-04-02T12:31:03.736Z,9.7
2018-04-02T12:41:03.616Z,10.7
2018-04-02T12:51:03.974Z,10.0
2018-04-02T13:01:03.779Z,10.5
2018-04-02T13:11:03.621Z,10.0
2018-04-02T13:21:03.591Z,10.2
2018-04-02T13:31:03.470Z,9.4
2018-04-02T13:41:03.419Z,8.7
2018-04-02T13:51:03.652Z,8.7
2018-04-02T14:01:03.508Z,8.1
2018-04-02T14:11:03.410Z,7.7
2018-04-02T14:21:03.502Z,7.8
2018-04-02T14:31:03.338Z,8.2
2018-04-02T14:41:03.227Z,7.7
2018-04-02T14:51:04.071Z,6.7
2018-04-02T15:01:03.967Z,7.3
2018-04-02T15:11:03.852Z,7.6
2018-04-02T15:21:04.165Z,7.3
2018-04-02T15:31:04.072Z,6.7
2018-04-02T15:41:03.929Z,10.6
2018-04-02T15:51:04.042Z,6.9
2018-04-02T16:01:03.885Z,7.0
2018-04-02T16:11:03.839Z,10.0
2018-04-02T16:21:03.879Z,7.2
2018-04-02T16:31:03.624Z,8.5
2018-04-02T16:41:03.501Z,8.0
2018-04-02T16:51:03.410Z,7.6
2018-04-02T17:01:03.496Z,8.6
2018-04-02T17:11:03.389Z,9.0
2018-04-02T17:21:03.511Z,9.0
2018-04-02T17:31:03.320Z,9.5
2018-04-02T17:41:04.460Z,10.4
2018-04-02T17:51:03.348Z,10.9
2018-04-02T18:01:04.452Z,11.7
2018-04-02T18:11:03.641Z,12.1
2018-04-02T18:21:03.688Z,13.0
2018-04-02T18:31:03.588Z,16.4
2018-04-02T18:41:03.452Z,19.6
2018-04-02T18:51:03.413Z,48.9
2018-04-02T19:01:03.581Z,45.2
2018-04-02T19:11:03.474Z,47.4
2018-04-02T19:21:03.448Z,39.2
2018-04-02T19:31:03.336Z,37.4
2018-04-02T19:41:04.251Z,47.2
2018-04-02T19:51:04.300Z,47.2
2018-04-02T20:01:04.281Z,45.9
2018-04-02T20:11:04.123Z,37.6
2018-04-02T20:21:04.081Z,43.3
2018-04-02T20:31:03.919Z,38.1
2018-04-02T20:41:03.994Z,53.1
2018-04-02T20:51:03.855Z,58.5
2018-04-02T21:01:03.784Z,47.6
2018-04-02T21:11:03.670Z,52.7
2018-04-02T21:21:03.850Z,54.6
2018-04-02T21:31:03.695Z,62.9
2018-04-02T21:41:03.710Z,62.2
2018-04-02T21:51:03.456Z,60.8
2018-04-02T22:01:03.239Z,73.8
2018-04-02T22:11:04.068Z,84.3
2018-04-02T22:21:04.009Z,81.4
2018-04-02T22:31:03.842Z,69.1
2018-04-02T22:41:03.668Z,65.1
2018-04-02T22:51:03.467Z,62.5
2018-04-02T23:01:03.296Z,62.5
2018-04-02T23:11:04.497Z,60.8
2018-04-02T23:21:03.432Z,59.7
2018-04-02T23:31:03.254Z,57.3
2018-04-02T23:41:04.118Z,58.7
2018-04-02T23:51:03.945Z,56.7
